createdAt,value
2023-04-19T00:00:44.261Z,4.32
2023-04-19T00:03:11.585Z,4.15
2023-04-19T00:05:41.596Z,3.63
2023-04-19T00:08:08.393Z,4.85
2023-04-19T00:10:39.815Z,4.20
2023-04-19T00:13:06.714Z,3.50
2023-04-19T00:15:35.044Z,3.72
2023-04-19T00:18:01.600Z,3.25
2023-04-19T00:20:28.138Z,3.45
2023-04-19T00:22:54.784Z,3.55
2023-04-19T00:25:21.219Z,3.55
2023-04-19T00:27:47.826Z,3.83
2023-04-19T00:30:14.579Z,3.35
2023-04-19T00:32:41.118Z,3.63
2023-04-19T00:35:07.933Z,4.45
2023-04-19T00:37:34.402Z,3.58
2023-04-19T00:40:00.844Z,3.33
2023-04-19T00:42:27.330Z,3.40
2023-04-19T00:44:53.889Z,3.45
2023-04-19T00:47:20.543Z,2.90
2023-04-19T00:49:47.158Z,3.20
2023-04-19T00:52:14.205Z,3.10
2023-04-19T00:54:43.520Z,3.53
2023-04-19T00:57:10.054Z,3.13
2023-04-19T00:59:36.887Z,3.33
2023-04-19T01:02:03.546Z,3.25
2023-04-19T01:04:30.298Z,3.22
2023-04-19T01:07:25.174Z,3.17
2023-04-19T01:09:51.624Z,3.03
2023-04-19T01:12:18.159Z,3.00
2023-04-19T01:14:44.833Z,3.00
2023-04-19T01:17:13.687Z,2.90
2023-04-19T01:19:40.180Z,3.20
2023-04-19T01:22:07.139Z,3.03
2023-04-19T01:24:34.413Z,4.47
2023-04-19T01:27:02.216Z,2.75
2023-04-19T01:29:28.793Z,3.42
2023-04-19T01:31:55.220Z,2.90
2023-04-19T01:34:23.220Z,3.38
2023-04-19T01:36:49.944Z,3.42
2023-04-19T01:39:16.673Z,3.00
2023-04-19T01:41:43.140Z,2.72
2023-04-19T01:44:09.708Z,2.90
2023-04-19T01:46:38.790Z,2.95
2023-04-19T01:49:05.401Z,3.22
2023-04-19T01:51:31.854Z,3.38
2023-04-19T01:53:58.482Z,3.25
2023-04-19T01:56:25.143Z,3.40
2023-04-19T01:58:51.625Z,3.03
2023-04-19T02:01:18.147Z,2.67
2023-04-19T02:03:44.840Z,2.88
2023-04-19T02:06:12.684Z,2.88
2023-04-19T02:08:39.984Z,3.58
2023-04-19T02:11:11.402Z,3.08
2023-04-19T02:13:37.898Z,3.13
2023-04-19T02:16:05.961Z,3.40
2023-04-19T02:18:33.371Z,2.90
2023-04-19T02:20:59.823Z,3.35
2023-04-19T02:23:26.267Z,2.85
2023-04-19T02:25:53.441Z,3.08
2023-04-19T02:28:19.941Z,3.42
2023-04-19T02:30:46.848Z,3.10
2023-04-19T02:33:13.401Z,3.10
2023-04-19T02:35:39.850Z,2.75
2023-04-19T02:38:06.424Z,2.65
2023-04-19T02:40:33.048Z,2.95
2023-04-19T02:42:59.553Z,3.58
2023-04-19T02:45:26.058Z,2.70
2023-04-19T02:47:52.685Z,3.38
2023-04-19T02:50:19.216Z,3.00
2023-04-19T02:52:45.964Z,3.35
2023-04-19T02:55:12.546Z,2.80
2023-04-19T02:57:39.146Z,3.38
2023-04-19T03:00:06.442Z,2.83
2023-04-19T03:02:33.058Z,2.83
2023-04-19T03:04:59.627Z,2.92
2023-04-19T03:07:26.192Z,2.63
2023-04-19T03:09:52.682Z,2.60
2023-04-19T03:12:19.213Z,2.55
2023-04-19T03:14:45.630Z,2.67
2023-04-19T03:17:12.081Z,2.63
2023-04-19T03:19:38.707Z,2.65
2023-04-19T03:22:05.274Z,3.05
2023-04-19T03:24:31.896Z,2.53
2023-04-19T03:26:58.380Z,2.83
2023-04-19T03:29:24.989Z,3.00
2023-04-19T03:31:51.421Z,2.67
2023-04-19T03:34:18.152Z,2.70
2023-04-19T03:36:44.702Z,2.38
2023-04-19T03:39:11.272Z,2.65
2023-04-19T03:41:37.736Z,2.90
2023-04-19T03:44:04.366Z,2.67
2023-04-19T03:46:31.697Z,2.75
2023-04-19T03:48:58.905Z,2.72
2023-04-19T03:51:25.458Z,2.85
2023-04-19T03:53:51.878Z,3.05
2023-04-19T03:56:18.380Z,3.28
2023-04-19T03:58:44.807Z,2.88
2023-04-19T04:01:21.468Z,3.22
2023-04-19T04:03:48.490Z,3.03
2023-04-19T04:06:15.700Z,2.85
2023-04-19T04:08:42.167Z,3.25
2023-04-19T04:11:08.670Z,2.88
2023-04-19T04:13:35.197Z,3.03
2023-04-19T04:16:01.901Z,2.50
2023-04-19T04:18:28.622Z,3.28
2023-04-19T04:20:55.548Z,2.70
2023-04-19T04:23:22.114Z,3.17
2023-04-19T04:25:57.972Z,3.03
2023-04-19T04:28:24.503Z,18.52
2023-04-19T04:30:51.861Z,3.78
2023-04-19T04:33:18.458Z,4.38
2023-04-19T04:35:44.922Z,2.75
2023-04-19T04:38:23.530Z,2.83
2023-04-19T04:40:53.650Z,3.38
2023-04-19T04:43:21.827Z,2.95
2023-04-19T04:45:48.478Z,2.95
2023-04-19T04:48:15.280Z,2.88
2023-04-19T04:50:42.164Z,3.22
2023-04-19T04:53:08.924Z,3.13
2023-04-19T04:55:36.472Z,3.03
2023-04-19T04:58:05.182Z,2.97
2023-04-19T05:00:32.224Z,3.45
2023-04-19T05:02:59.312Z,3.15
2023-04-19T05:05:26.226Z,3.05
2023-04-19T05:07:52.663Z,2.47
2023-04-19T05:10:19.139Z,2.92
2023-04-19T05:12:45.672Z,2.67
2023-04-19T05:15:12.150Z,3.38
2023-04-19T05:17:38.743Z,2.63
2023-04-19T05:20:06.037Z,3.13
2023-04-19T05:22:32.491Z,3.20
2023-04-19T05:24:58.987Z,3.05
2023-04-19T05:27:25.796Z,2.80
2023-04-19T05:29:52.769Z,2.83
2023-04-19T05:32:19.531Z,3.25
2023-04-19T05:34:46.141Z,2.63
2023-04-19T05:37:12.642Z,2.97
2023-04-19T05:39:39.083Z,2.40
2023-04-19T05:42:05.565Z,2.40
2023-04-19T05:44:32.006Z,2.60
2023-04-19T05:46:58.477Z,2.30
2023-04-19T05:49:24.923Z,2.50
2023-04-19T05:51:51.684Z,3.17
2023-04-19T05:54:18.394Z,3.28
2023-04-19T05:56:45.323Z,2.92
2023-04-19T05:59:11.780Z,2.78
2023-04-19T06:01:38.297Z,3.00
2023-04-19T06:04:05.043Z,3.20
2023-04-19T06:06:31.756Z,2.92
2023-04-19T06:08:58.254Z,3.25
2023-04-19T06:11:34.847Z,3.05
2023-04-19T06:14:06.193Z,3.30
2023-04-19T06:16:32.820Z,2.80
2023-04-19T06:18:59.429Z,2.67
2023-04-19T06:21:26.942Z,3.03
2023-04-19T06:23:53.414Z,2.55
2023-04-19T06:26:20.050Z,3.50
2023-04-19T06:28:46.490Z,3.40
2023-04-19T06:31:13.011Z,3.10
2023-04-19T06:33:39.588Z,2.20
2023-04-19T06:36:06.254Z,2.92
2023-04-19T06:38:32.806Z,2.38
2023-04-19T06:40:59.222Z,2.47
2023-04-19T06:43:25.800Z,2.75
2023-04-19T06:46:02.894Z,2.10
2023-04-19T06:48:29.414Z,2.72
2023-04-19T06:50:55.958Z,2.58
2023-04-19T06:53:22.786Z,2.88
2023-04-19T06:55:49.515Z,2.70
2023-04-19T06:58:15.985Z,2.45
2023-04-19T07:00:42.542Z,2.83
2023-04-19T07:03:09.209Z,2.50
2023-04-19T07:05:36.419Z,2.00
2023-04-19T07:08:03.196Z,2.17
2023-04-19T07:10:29.741Z,2.42
2023-04-19T07:12:56.330Z,2.33
2023-04-19T07:15:22.869Z,1.98
2023-04-19T07:17:49.351Z,2.17
2023-04-19T07:20:16.043Z,2.58
2023-04-19T07:22:42.615Z,2.30
2023-04-19T07:25:09.516Z,2.30
2023-04-19T07:27:35.991Z,1.80
2023-04-19T07:30:02.882Z,2.25
2023-04-19T07:32:31.342Z,2.33
2023-04-19T07:34:57.829Z,1.85
2023-04-19T07:37:24.305Z,2.40
2023-04-19T07:39:50.982Z,1.98
2023-04-19T07:42:17.526Z,1.98
2023-04-19T07:44:44.025Z,2.60
2023-04-19T07:47:10.830Z,2.00
2023-04-19T07:49:37.718Z,2.20
2023-04-19T07:52:07.748Z,2.70
2023-04-19T07:54:34.549Z,2.00
2023-04-19T07:57:01.035Z,2.10
2023-04-19T07:59:27.680Z,2.35
2023-04-19T08:01:54.185Z,2.60
2023-04-19T08:04:23.239Z,2.75
2023-04-19T08:06:50.202Z,1.63
2023-04-19T08:09:16.797Z,2.17
2023-04-19T08:11:43.348Z,2.03
2023-04-19T08:14:21.800Z,2.60
2023-04-19T08:17:22.062Z,2.28
2023-04-19T08:19:42.956Z,2.38
2023-04-19T08:22:09.562Z,2.05
2023-04-19T08:24:36.101Z,2.35
2023-04-19T08:27:02.670Z,2.35
2023-04-19T08:29:29.164Z,2.35
2023-04-19T08:31:55.697Z,2.85
2023-04-19T08:34:22.368Z,2.25
2023-04-19T08:36:56.215Z,2.30
2023-04-19T08:39:33.589Z,2.15
2023-04-19T08:42:12.598Z,2.33
2023-04-19T08:45:02.181Z,2.83
2023-04-19T08:47:34.211Z,2.75
2023-04-19T08:50:17.481Z,2.47
2023-04-19T08:52:58.519Z,2.40
2023-04-19T08:55:28.110Z,2.58
2023-04-19T08:57:54.650Z,3.13
2023-04-19T09:00:21.660Z,2.80
2023-04-19T09:02:53.276Z,2.60
2023-04-19T09:05:20.400Z,3.10
2023-04-19T09:07:47.541Z,2.33
2023-04-19T09:10:19.451Z,2.78
2023-04-19T09:13:03.147Z,2.63
2023-04-19T09:15:41.977Z,2.30
2023-04-19T09:18:12.287Z,2.90
2023-04-19T09:20:40.729Z,2.60
2023-04-19T09:23:09.589Z,2.42
2023-04-19T09:25:55.445Z,2.50
2023-04-19T09:28:23.915Z,2.72
2023-04-19T09:31:00.625Z,2.63
2023-04-19T09:33:39.862Z,2.83
2023-04-19T09:36:07.826Z,2.53
2023-04-19T09:38:48.257Z,2.70
2023-04-19T09:41:14.908Z,3.20
2023-04-19T09:46:38.158Z,3.13
2023-04-19T09:49:22.984Z,3.20
2023-04-19T09:51:56.305Z,3.33
2023-04-19T09:54:24.636Z,2.70
2023-04-19T09:56:54.062Z,2.88
2023-04-19T09:59:23.284Z,2.90
2023-04-19T10:01:56.221Z,2.80
2023-04-19T10:04:37.747Z,2.65
2023-04-19T10:07:29.033Z,2.83
2023-04-19T10:10:02.350Z,2.95
2023-04-19T10:12:54.879Z,2.97
2023-04-19T10:15:23.729Z,2.78
2023-04-19T10:17:50.984Z,2.92
2023-04-19T10:20:22.982Z,2.42
2023-04-19T10:22:49.973Z,2.63
2023-04-19T10:25:16.993Z,3.10
2023-04-19T10:27:49.058Z,2.70
2023-04-19T10:30:21.051Z,2.90
2023-04-19T10:32:54.169Z,2.75
2023-04-19T10:35:22.028Z,3.28
2023-04-19T10:38:10.166Z,2.78
2023-04-19T10:41:04.452Z,3.15
2023-04-19T10:43:35.360Z,3.63
2023-04-19T10:46:08.852Z,4.22
2023-04-19T10:48:40.717Z,3.08
2023-04-19T10:51:15.693Z,2.75
2023-04-19T10:53:50.868Z,3.53
2023-04-19T10:56:59.874Z,3.22
2023-04-19T10:59:27.657Z,3.85
2023-04-19T11:01:56.827Z,3.75
2023-04-19T11:04:43.581Z,3.63
2023-04-19T11:07:10.102Z,3.42
2023-04-19T11:09:39.564Z,3.30
2023-04-19T11:12:08.484Z,2.72
2023-04-19T11:14:41.884Z,3.20
2023-04-19T11:17:39.560Z,4.18
2023-04-19T11:20:10.201Z,2.90
2023-04-19T11:22:40.731Z,3.22
2023-04-19T11:25:10.494Z,3.20
2023-04-19T11:27:38.236Z,3.42
2023-04-19T11:30:07.046Z,3.40
2023-04-19T11:32:34.201Z,2.67
2023-04-19T11:35:08.842Z,3.90
2023-04-19T11:37:36.654Z,3.63
2023-04-19T11:40:05.630Z,3.25
2023-04-19T11:42:33.063Z,3.45
2023-04-19T11:44:59.949Z,3.40
2023-04-19T11:47:27.206Z,3.40
2023-04-19T11:49:56.468Z,3.17
2023-04-19T11:52:26.309Z,3.03
2023-04-19T11:54:53.539Z,3.15
2023-04-19T11:57:30.704Z,2.80
2023-04-19T12:00:11.725Z,3.38
2023-04-19T12:02:40.186Z,3.05
2023-04-19T12:05:11.726Z,3.08
2023-04-19T12:07:56.965Z,2.60
2023-04-19T12:10:23.517Z,2.70
2023-04-19T12:12:49.974Z,3.15
2023-04-19T12:15:16.718Z,2.80
2023-04-19T12:18:02.739Z,2.97
2023-04-19T12:20:34.515Z,3.35
2023-04-19T12:25:32.250Z,2.85
2023-04-19T12:28:00.611Z,3.13
2023-04-19T12:30:27.335Z,3.22
2023-04-19T12:32:55.643Z,2.72
2023-04-19T12:35:24.357Z,2.80
2023-04-19T12:37:51.889Z,3.05
2023-04-19T12:40:18.316Z,3.15
2023-04-19T12:42:44.853Z,2.97
2023-04-19T12:45:13.265Z,3.25
2023-04-19T12:47:41.096Z,3.08
2023-04-19T12:50:08.944Z,3.30
2023-04-19T12:52:35.541Z,3.22
2023-04-19T12:55:02.726Z,3.58
2023-04-19T12:57:30.139Z,3.38
2023-04-19T12:59:56.612Z,2.92
2023-04-19T13:02:23.189Z,3.83
2023-04-19T13:04:49.998Z,3.80
2023-04-19T13:07:16.605Z,3.67
2023-04-19T13:09:43.275Z,3.50
2023-04-19T13:12:09.798Z,4.20
2023-04-19T13:14:36.337Z,3.80
2023-04-19T13:17:02.846Z,3.45
2023-04-19T13:19:29.272Z,2.92
2023-04-19T13:21:55.750Z,3.70
2023-04-19T13:24:22.244Z,3.58
2023-04-19T13:26:48.712Z,3.83
2023-04-19T13:29:15.178Z,3.47
2023-04-19T13:31:43.616Z,3.40
2023-04-19T13:34:10.489Z,3.33
2023-04-19T13:36:37.686Z,3.65
2023-04-19T13:39:05.286Z,3.25
2023-04-19T13:41:32.923Z,3.05
2023-04-19T13:43:59.364Z,3.03
2023-04-19T13:46:25.858Z,3.83
2023-04-19T13:48:52.358Z,3.83
2023-04-19T13:51:19.121Z,3.53
2023-04-19T13:53:45.612Z,3.70
2023-04-19T13:56:12.115Z,3.60
2023-04-19T13:58:38.765Z,3.35
2023-04-19T14:01:05.390Z,2.83
2023-04-19T14:03:32.077Z,3.05
2023-04-19T14:05:58.826Z,3.08
2023-04-19T14:08:25.669Z,3.22
2023-04-19T14:10:52.165Z,3.58
2023-04-19T14:13:18.750Z,3.75
2023-04-19T14:15:45.271Z,3.38
2023-04-19T14:18:11.768Z,5.13
2023-04-19T14:20:38.274Z,3.30
2023-04-19T14:23:04.795Z,3.22
2023-04-19T14:25:31.321Z,3.50
2023-04-19T14:27:59.417Z,3.60
2023-04-19T14:30:26.279Z,3.85
2023-04-19T14:32:53.098Z,2.78
2023-04-19T14:35:20.072Z,3.75
2023-04-19T14:37:46.746Z,3.35
2023-04-19T14:40:13.335Z,3.17
2023-04-19T14:42:39.963Z,3.30
2023-04-19T14:45:07.157Z,3.00
2023-04-19T14:47:34.358Z,3.38
2023-04-19T14:50:00.862Z,3.50
2023-04-19T14:52:27.537Z,4.50
2023-04-19T14:54:54.184Z,4.18
2023-04-19T14:57:20.780Z,3.85
2023-04-19T14:59:47.197Z,4.45
2023-04-19T15:02:13.980Z,4.03
2023-04-19T15:04:41.495Z,4.93
2023-04-19T15:07:08.543Z,5.07
2023-04-19T15:09:35.066Z,5.00
2023-04-19T15:12:01.816Z,5.32
2023-04-19T15:14:28.587Z,5.03
2023-04-19T15:16:55.087Z,4.70
2023-04-19T15:19:21.670Z,4.90
2023-04-19T15:21:48.103Z,5.18
2023-04-19T15:24:14.548Z,5.75
2023-04-19T15:26:43.558Z,6.00
2023-04-19T15:29:10.785Z,5.00
2023-04-19T15:31:37.425Z,5.22
2023-04-19T15:34:04.151Z,5.60
2023-04-19T15:36:31.104Z,4.60
2023-04-19T15:39:00.579Z,5.50
2023-04-19T15:41:27.121Z,6.03
2023-04-19T15:43:53.546Z,6.05
2023-04-19T15:46:20.280Z,5.53
2023-04-19T15:48:48.458Z,7.00
2023-04-19T15:51:15.432Z,6.43
2023-04-19T15:53:42.078Z,7.00
2023-04-19T15:56:08.678Z,8.43
2023-04-19T15:58:35.101Z,7.50
2023-04-19T16:01:01.663Z,9.07
2023-04-19T16:03:28.784Z,8.75
2023-04-19T16:05:55.625Z,9.30
2023-04-19T16:08:22.160Z,9.13
2023-04-19T16:10:49.411Z,8.60
2023-04-19T16:13:16.884Z,9.00
2023-04-19T16:15:44.282Z,8.25
2023-04-19T16:18:12.132Z,8.38
2023-04-19T16:20:39.948Z,8.18
2023-04-19T16:23:06.555Z,8.35
2023-04-19T16:25:33.509Z,9.55
2023-04-19T16:28:00.339Z,9.10
2023-04-19T16:30:26.908Z,9.23
2023-04-19T16:32:57.876Z,9.95
2023-04-19T16:35:25.475Z,8.98
2023-04-19T16:37:54.598Z,8.82
2023-04-19T16:40:22.840Z,8.95
2023-04-19T16:42:49.336Z,8.80
2023-04-19T16:45:17.612Z,8.77
2023-04-19T16:47:46.075Z,8.32
2023-04-19T16:50:14.255Z,9.55
2023-04-19T16:52:41.063Z,9.25
2023-04-19T16:55:08.131Z,8.27
2023-04-19T16:57:34.740Z,10.13
2023-04-19T17:00:01.277Z,11.10
2023-04-19T17:02:28.062Z,11.43
2023-04-19T17:04:56.175Z,13.50
2023-04-19T17:07:22.810Z,12.55
2023-04-19T17:09:49.354Z,12.20
2023-04-19T17:12:15.774Z,12.65
2023-04-19T17:14:42.270Z,14.45
2023-04-19T17:17:08.723Z,12.82
2023-04-19T17:19:36.296Z,12.00
2023-04-19T17:22:05.447Z,11.10
2023-04-19T17:24:32.995Z,10.75
2023-04-19T17:27:00.255Z,10.88
2023-04-19T17:29:27.465Z,9.38
2023-04-19T17:31:54.228Z,10.02
2023-04-19T17:34:20.824Z,8.93
2023-04-19T17:36:47.323Z,9.20
2023-04-19T17:39:14.202Z,8.30
2023-04-19T17:41:41.437Z,6.65
2023-04-19T17:44:07.966Z,8.23
2023-04-19T17:46:34.477Z,9.10
2023-04-19T17:49:01.273Z,9.52
2023-04-19T17:51:27.836Z,9.50
2023-04-19T17:53:54.569Z,9.68
2023-04-19T17:56:21.339Z,8.18
2023-04-19T17:58:47.795Z,8.55
2023-04-19T18:01:16.148Z,9.52
2023-04-19T18:03:42.902Z,9.30
2023-04-19T18:06:10.606Z,9.73
2023-04-19T18:08:37.060Z,9.90
2023-04-19T18:11:03.596Z,9.82
2023-04-19T18:13:30.061Z,11.18
2023-04-19T18:15:56.563Z,9.48
2023-04-19T18:18:23.322Z,10.32
2023-04-19T18:20:50.348Z,9.85
2023-04-19T18:23:16.791Z,9.75
2023-04-19T18:25:43.271Z,9.50
2023-04-19T18:28:09.784Z,9.95
2023-04-19T18:30:36.248Z,10.02
2023-04-19T18:33:02.782Z,9.57
2023-04-19T18:35:29.784Z,10.02
2023-04-19T18:37:56.336Z,11.98
2023-04-19T18:40:22.869Z,11.57
2023-04-19T18:42:49.338Z,11.60
2023-04-19T18:45:15.891Z,12.23
2023-04-19T18:47:42.492Z,11.23
2023-04-19T18:50:09.554Z,10.57
2023-04-19T18:52:36.794Z,11.55
2023-04-19T18:55:04.749Z,12.65
2023-04-19T18:57:34.487Z,12.85
2023-04-19T19:00:02.457Z,13.23
2023-04-19T19:02:29.222Z,12.80
2023-04-19T19:04:58.261Z,12.93
2023-04-19T19:07:36.425Z,12.93
2023-04-19T19:10:16.945Z,14.43
2023-04-19T19:12:45.806Z,13.40
2023-04-19T19:15:13.171Z,13.00
2023-04-19T19:17:39.771Z,13.75
2023-04-19T19:20:07.157Z,13.95
2023-04-19T19:22:34.113Z,14.85
2023-04-19T19:25:01.407Z,14.55
2023-04-19T19:27:28.229Z,13.50
2023-04-19T19:29:55.295Z,13.88
2023-04-19T19:32:22.020Z,14.70
2023-04-19T19:37:19.105Z,14.52
2023-04-19T19:39:46.482Z,15.05
2023-04-19T19:42:16.203Z,14.82
2023-04-19T19:44:42.952Z,16.60
2023-04-19T19:47:10.756Z,14.80
2023-04-19T19:52:07.209Z,16.52
2023-04-19T19:54:33.847Z,16.63
2023-04-19T19:57:56.707Z,15.52
2023-04-19T19:59:52.675Z,16.00
2023-04-19T20:02:22.796Z,16.02
2023-04-19T20:04:50.050Z,17.92
2023-04-19T20:09:46.078Z,17.88
2023-04-19T20:12:13.733Z,17.67
2023-04-19T20:14:40.718Z,17.48
2023-04-19T20:17:07.466Z,17.15
2023-04-19T20:19:34.273Z,18.48
2023-04-19T20:22:00.841Z,17.38
2023-04-19T20:24:27.650Z,17.60
2023-04-19T20:26:54.176Z,17.67
2023-04-19T20:29:20.804Z,17.70
2023-04-19T20:31:47.452Z,18.50
2023-04-19T20:34:13.949Z,19.08
2023-04-19T20:36:40.688Z,19.92
2023-04-19T20:39:09.664Z,19.52
2023-04-19T20:41:36.647Z,18.65
2023-04-19T20:44:04.548Z,18.55
2023-04-19T20:46:31.155Z,18.25
2023-04-19T20:48:57.654Z,18.30
2023-04-19T20:51:24.133Z,19.20
2023-04-19T20:53:50.708Z,18.73
2023-04-19T20:56:17.173Z,18.48
2023-04-19T20:58:43.726Z,17.80
2023-04-19T21:01:11.644Z,16.90
2023-04-19T21:03:38.389Z,17.60
2023-04-19T21:06:05.514Z,16.67
2023-04-19T21:08:31.971Z,17.73
2023-04-19T21:10:58.533Z,16.42
2023-04-19T21:13:25.067Z,15.43
2023-04-19T21:15:51.556Z,16.63
2023-04-19T21:18:18.338Z,14.90
2023-04-19T21:20:44.963Z,16.02
2023-04-19T21:23:11.513Z,15.32
2023-04-19T21:25:37.982Z,14.52
2023-04-19T21:28:04.566Z,15.98
2023-04-19T21:30:31.594Z,16.60
2023-04-19T21:32:58.187Z,15.25
2023-04-19T21:35:24.778Z,15.02
2023-04-19T21:37:51.287Z,16.00
2023-04-19T21:40:17.747Z,15.77
2023-04-19T21:42:44.262Z,16.55
2023-04-19T21:45:18.630Z,15.77
2023-04-19T21:47:45.781Z,16.10
2023-04-19T21:50:12.638Z,15.80
2023-04-19T21:52:39.275Z,16.92
2023-04-19T21:55:06.525Z,16.85
2023-04-19T21:57:32.971Z,16.13
2023-04-19T21:59:59.491Z,16.70
2023-04-19T22:02:26.302Z,16.75
2023-04-19T22:04:53.912Z,15.82
2023-04-19T22:07:20.815Z,15.77
2023-04-19T22:09:47.672Z,17.33
2023-04-19T22:12:14.458Z,16.05
2023-04-19T22:14:41.474Z,15.63
2023-04-19T22:17:09.037Z,15.82
2023-04-19T22:19:35.600Z,16.80
2023-04-19T22:22:02.115Z,15.60
2023-04-19T22:24:28.611Z,14.23
2023-04-19T22:26:55.108Z,15.45
2023-04-19T22:29:21.766Z,14.85
2023-04-19T22:31:48.485Z,15.98
2023-04-19T22:34:14.962Z,15.57
2023-04-19T22:36:41.522Z,15.25
2023-04-19T22:39:09.027Z,15.00
2023-04-19T22:41:35.628Z,15.50
2023-04-19T22:44:02.222Z,14.63
2023-04-19T22:46:28.862Z,14.85
2023-04-19T22:48:58.040Z,14.45
2023-04-19T22:51:24.673Z,14.73
2023-04-19T22:53:51.222Z,14.45
2023-04-19T22:56:17.865Z,13.88
2023-04-19T22:58:44.588Z,14.13
2023-04-19T23:01:11.295Z,15.00
2023-04-19T23:03:37.801Z,13.75
2023-04-19T23:06:04.586Z,14.70
2023-04-19T23:08:31.066Z,14.00
2023-04-19T23:10:57.510Z,13.35
2023-04-19T23:13:23.971Z,14.15
2023-04-19T23:15:50.616Z,12.93
2023-04-19T23:18:17.730Z,12.00
2023-04-19T23:20:44.245Z,13.43
2023-04-19T23:23:11.521Z,13.63
2023-04-19T23:25:38.008Z,13.70
2023-04-19T23:28:04.502Z,15.00
2023-04-19T23:30:32.111Z,14.95
2023-04-19T23:32:58.731Z,16.05
2023-04-19T23:35:25.403Z,15.50
2023-04-19T23:37:51.963Z,13.85
2023-04-19T23:40:18.614Z,13.13
2023-04-19T23:42:45.347Z,14.13
2023-04-19T23:45:12.015Z,14.32
2023-04-19T23:47:38.501Z,14.45
2023-04-19T23:50:05.475Z,14.57
2023-04-19T23:52:31.973Z,14.30
2023-04-19T23:54:58.461Z,14.52
2023-04-19T23:57:24.944Z,15.00
2023-04-19T23:59:51.438Z,13.65
